Scf Baltica — A8IA5 — position and weather

sailwx.info

Track history (hours):
 
Tides and Currents Weather Stations Pressure Air Temp Water Temp Dewpoint Dewpoint Depression Visibility Wind Speed Wind Dir Waves Ship Positions

Scf Baltica

Last reported at 2018-Feb-22 20:03 UTC. Time now 2018-Feb-24 09:41 UTC.
Position N 58°21' E 011°24'.

Length 250 m; draft 14.2 m.

Type: Ship. MMSI: 636012813.

Date/timePositionNaut miles runAvg speedWind from/ knotsBaromVisibWave heightAir tempDewpointWater temp
2018-Feb-22 20:03N 58°21' E 011°24'0 0.1
2018-Feb-22 20:00N 58°21' E 011°24'0 0.9
2018-Feb-22 19:30N 58°21' E 011°24'1 2.5
2018-Feb-22 19:00N 58°20' E 011°22'4 8.0
2018-Feb-22 18:30N 58°17' E 011°17'510.3
2018-Feb-22 18:00N 58°14' E 011°09'3 5.2
2018-Feb-22 17:29N 58°12' E 011°05'1 2.7
2018-Feb-22 17:00N 58°11' E 011°05'4 8.5
2018-Feb-22 16:30N 58°06' E 011°04'611.1
2018-Feb-22 16:00N 58°01' E 011°01'611.8
2018-Feb-22 15:30N 57°55' E 010°58'611.7
2018-Feb-22 15:00N 57°50' E 010°54'510.2
2018-Feb-22 14:30N 57°45' E 010°52'511.2
2018-Feb-22 14:00N 57°41' E 010°60'612.8
2018-Feb-22 13:30N 57°37' E 011°08'612.8
2018-Feb-22 13:00N 57°32' E 011°17'612.3
2018-Feb-22 12:30N 57°28' E 011°25'612.0
2018-Feb-22 12:00N 57°22' E 011°29'612.2
2018-Feb-22 11:30N 57°17' E 011°33'712.2
2018-Feb-22 10:55N 57°10' E 011°37'612.2
2018-Feb-22 10:26N 57°04' E 011°41'10511.0
2018-Feb-22 00:51N 55°21' E 011°02'6 9.5
2018-Feb-22 00:13N 55°15' E 011°05'210.8
2018-Feb-22 00:00N 55°13' E 011°06'611.9
2018-Feb-21 23:28N 55°08' E 010°60'613.2
2018-Feb-21 23:00N 55°02' E 010°60'612.7
2018-Feb-21 22:30N 54°57' E 010°54'713.5
2018-Feb-21 22:00N 54°50' E 010°50'613.0
2018-Feb-21 21:30N 54°44' E 010°47'510.7
2018-Feb-21 21:00N 54°39' E 010°51'612.4
2018-Feb-21 20:30N 54°36' E 011°00'612.7
2018-Feb-21 20:00N 54°36' E 011°11'713.0
2018-Feb-21 19:30N 54°33' E 011°21'612.7
2018-Feb-21 19:00N 54°30' E 011°31'612.5
2018-Feb-21 18:30N 54°28' E 011°41'812.2
2018-Feb-21 17:50N 54°26' E 011°55'412.5
2018-Feb-21 17:29N 54°27' E 012°02'611.5
2018-Feb-21 17:00N 54°28' E 012°12'7210.2
2018-Feb-21 09:53N 55°03' E 014°01'612.3
2018-Feb-21 09:24N 55°07' E 014°09'613.1
2018-Feb-21 08:56N 55°12' E 014°16'613.1
2018-Feb-21 08:28N 55°16' E 014°22'713.2
2018-Feb-21 07:58N 55°22' E 014°29'613.1
2018-Feb-21 07:30N 55°26' E 014°36'713.1
2018-Feb-21 06:59N 55°30' E 014°47'613.2
2018-Feb-21 06:30N 55°33' E 014°57'713.1
2018-Feb-21 06:00N 55°36' E 015°07'713.1
2018-Feb-21 05:30N 55°38' E 015°18'713.1
2018-Feb-21 05:00N 55°40' E 015°29'713.1
2018-Feb-21 04:30N 55°41' E 015°40'713.2
2018-Feb-21 04:00N 55°43' E 015°52'713.2
2018-Feb-21 03:30N 55°44' E 016°03'713.0
2018-Feb-21 03:00N 55°46' E 016°14'713.0
2018-Feb-21 02:30N 55°48' E 016°26'713.1
2018-Feb-21 02:00N 55°49' E 016°37'613.0
2018-Feb-21 01:30N 55°51' E 016°48'30312.5
2018-Feb-20 01:19N 59°36' E 023°09'513.6
2018-Feb-20 00:55N 59°37' E 023°20'513.3
2018-Feb-20 00:30N 59°39' E 023°30'713.3
2018-Feb-20 00:00N 59°41' E 023°42'713.4
2018-Feb-19 23:30N 59°43' E 023°55'713.4
2018-Feb-19 22:57N 59°45' E 024°09'614.2
2018-Feb-19 22:30N 59°46' E 024°21'712.6
2018-Feb-19 21:59N 59°48' E 024°34'613.3
2018-Feb-19 21:30N 59°49' E 024°46'713.8
2018-Feb-19 21:01N 59°50' E 024°60'813.0
2018-Feb-19 20:23N 59°52' E 025°16'512.9
2018-Feb-19 20:00N 59°53' E 025°25'713.4
2018-Feb-19 19:30N 59°54' E 025°38'1813.1
2018-Feb-19 18:10N 59°59' E 026°12'212.7
2018-Feb-19 18:00N 59°59' E 026°16'612.8
2018-Feb-19 17:30N 60°01' E 026°28'611.9
2018-Feb-19 17:00N 60°01' E 026°40'612.7
2018-Feb-19 16:30N 60°00' E 026°53'612.4
2018-Feb-19 16:00N 60°00' E 027°05'510.5
2018-Feb-19 15:30N 60°02' E 027°15'510.4
2018-Feb-19 15:00N 60°05' E 027°24'610.9
2018-Feb-19 14:30N 60°08' E 027°33'612.6
2018-Feb-19 14:00N 60°11' E 027°43'5 9.5
2018-Feb-19 13:29N 60°11' E 027°53'510.3
2018-Feb-19 13:00N 60°09' E 028°03'5 9.4
2018-Feb-19 12:30N 60°08' E 028°12'510.4
2018-Feb-19 12:00N 60°06' E 028°21'4 8.2
2018-Feb-19 11:30N 60°04' E 028°28'4 8.5
2018-Feb-19 11:00N 60°02' E 028°36'5 9.6
2018-Feb-19 10:30N 59°57' E 028°35'2 4.8
2018-Feb-19 10:00N 59°55' E 028°33'2 3.7
2018-Feb-19 09:30N 59°53' E 028°31'510.1
2018-Feb-19 09:00N 59°49' E 028°26'5 9.2
2018-Feb-19 08:30N 59°44' E 028°25'2 2.9
2018-Feb-19 07:51N 59°43' E 028°26'0 0.0
2018-Feb-19 07:18N 59°43' E 028°26'0 0.0
2018-Feb-19 06:51N 59°43' E 028°26'0 0.0
2018-Feb-19 06:24N 59°43' E 028°26'0 0.0
2018-Feb-19 05:54N 59°43' E 028°26'0 0.0
2018-Feb-19 05:21N 59°43' E 028°26'0 0.0
2018-Feb-19 04:54N 59°43' E 028°26'0 0.0
2018-Feb-19 04:24N 59°43' E 028°26'0 0.0
2018-Feb-19 03:57N 59°43' E 028°26'0 0.0
2018-Feb-19 03:27N 59°43' E 028°26'0 0.0
2018-Feb-19 02:57N 59°43' E 028°26'0 0.0
2018-Feb-19 02:27N 59°43' E 028°26'0 0.0
2018-Feb-19 01:57N 59°43' E 028°26'0 0.0
2018-Feb-19 01:27N 59°43' E 028°26'0 0.0
2018-Feb-19 00:57N 59°43' E 028°26'0 0.0
2018-Feb-19 00:30N 59°43' E 028°26'0 0.0
2018-Feb-18 23:57N 59°43' E 028°26'0 0.0
2018-Feb-18 23:30N 59°43' E 028°26'0 0.0
2018-Feb-18 23:00N 59°43' E 028°26'0 0.0
2018-Feb-18 22:30N 59°43' E 028°26'0 0.0
2018-Feb-18 22:00N 59°43' E 028°26'0 0.0
2018-Feb-18 21:30N 59°43' E 028°26'0 0.0
2018-Feb-18 21:00N 59°43' E 028°26'0 0.0
2018-Feb-18 20:18N 59°43' E 028°26'0 0.0
2018-Feb-18 20:00N 59°43' E 028°26'0 0.0
2018-Feb-18 19:30N 59°43' E 028°26'0 0.0
2018-Feb-18 19:00N 59°43' E 028°26'0 0.0
2018-Feb-18 18:30N 59°43' E 028°26'0 0.0
2018-Feb-18 17:51N 59°43' E 028°26'0 0.0
2018-Feb-18 17:21N 59°43' E 028°26'0 0.0
2018-Feb-18 16:54N 59°43' E 028°26'0 0.0
2018-Feb-18 16:24N 59°43' E 028°26'0 0.0
2018-Feb-18 15:54N 59°43' E 028°26'0 0.0
2018-Feb-18 15:24N 59°43' E 028°26'0 0.0
2018-Feb-18 14:54N 59°43' E 028°26'0 0.0
2018-Feb-18 14:24N 59°43' E 028°26'0 0.0
2018-Feb-18 13:57N 59°43' E 028°26'0 0.0
2018-Feb-18 13:27N 59°43' E 028°26'0 0.0
2018-Feb-18 12:57N 59°43' E 028°26'0 0.0
2018-Feb-18 12:27N 59°43' E 028°26'0 0.0
2018-Feb-18 11:57N 59°43' E 028°26'0 0.0
2018-Feb-18 11:27N 59°43' E 028°26'0 0.0
2018-Feb-18 11:00N 59°43' E 028°26'0 0.0
2018-Feb-18 10:30N 59°43' E 028°26'0 0.0
2018-Feb-18 09:57N 59°43' E 028°26'0 0.0
2018-Feb-18 09:27N 59°43' E 028°26'0 0.0
2018-Feb-18 09:00N 59°43' E 028°26'0 0.0
2018-Feb-18 08:30N 59°43' E 028°26'0 0.0
2018-Feb-18 07:57N 59°43' E 028°26'0 0.0
2018-Feb-18 07:30N 59°43' E 028°26'0 0.0
2018-Feb-18 07:00N 59°43' E 028°26'0 0.0
2018-Feb-18 06:30N 59°43' E 028°26'0 0.0
2018-Feb-18 06:00N 59°43' E 028°26'0 0.0
2018-Feb-18 05:30N 59°43' E 028°26'0 0.0
2018-Feb-18 05:00N 59°43' E 028°26'0 0.0
2018-Feb-18 04:30N 59°43' E 028°26'0 0.0
2018-Feb-18 03:51N 59°43' E 028°26'0 0.0
2018-Feb-18 03:21N 59°43' E 028°26'0 0.0
2018-Feb-18 02:51N 59°43' E 028°26'0 0.0
2018-Feb-18 02:24N 59°43' E 028°26'0 0.0
2018-Feb-18 01:54N 59°43' E 028°26'0 0.0
2018-Feb-18 01:24N 59°43' E 028°26'0 0.0
2018-Feb-18 00:54N 59°43' E 028°26'0 0.0
2018-Feb-18 00:24N 59°43' E 028°26'0 0.0
2018-Feb-17 23:54N 59°43' E 028°26'0 0.0
2018-Feb-17 23:24N 59°43' E 028°26'0 0.0
2018-Feb-17 22:57N 59°43' E 028°26'0 0.0
2018-Feb-17 22:27N 59°43' E 028°26'0 0.0
2018-Feb-17 21:57N 59°43' E 028°26'0 0.2
2018-Feb-17 21:30N 59°42' E 028°25'1 2.3
2018-Feb-17 21:00N 59°41' E 028°24'3 6.6
2018-Feb-17 20:30N 59°45' E 028°24'5 9.7
2018-Feb-17 20:00N 59°50' E 028°25'5 9.3
2018-Feb-17 19:30N 59°53' E 028°31'3 5.5
2018-Feb-17 19:00N 59°54' E 028°36'0 0.1
2018-Feb-17 18:27N 59°54' E 028°36'0 0.0
2018-Feb-17 17:57N 59°54' E 028°36'0 0.0
2018-Feb-17 17:27N 59°54' E 028°36'0 0.0
2018-Feb-17 17:00N 59°54' E 028°36'0 0.0
2018-Feb-17 16:30N 59°54' E 028°36'0 0.0
2018-Feb-17 16:00N 59°54' E 028°36'0 0.0
2018-Feb-17 15:30N 59°54' E 028°36'0 0.1
2018-Feb-17 15:00N 59°54' E 028°36'0 0.1
2018-Feb-17 14:30N 59°54' E 028°36'0 0.0
2018-Feb-17 14:00N 59°54' E 028°36'0 0.0
2018-Feb-17 13:30N 59°54' E 028°36'0 0.1
2018-Feb-17 13:00N 59°54' E 028°36'0 0.0
2018-Feb-17 12:27N 59°54' E 028°36'0 0.0
2018-Feb-17 12:00N 59°54' E 028°36'0 0.0
2018-Feb-17 11:30N 59°54' E 028°36'0 0.0
2018-Feb-17 10:48N 59°54' E 028°36'0 0.0
2018-Feb-17 10:30N 59°54' E 028°36'0 0.0
2018-Feb-17 10:00N 59°54' E 028°36'0 0.0
2018-Feb-17 09:30N 59°54' E 028°36'0 0.0
2018-Feb-17 08:48N 59°54' E 028°36'0 0.0
2018-Feb-17 08:27N 59°54' E 028°36'0 0.0
2018-Feb-17 07:57N 59°54' E 028°36'0 0.0
2018-Feb-17 07:27N 59°54' E 028°36'0 0.0
2018-Feb-17 06:57N 59°54' E 028°36'0 0.1
2018-Feb-17 06:27N 59°54' E 028°36'0 0.0
2018-Feb-17 05:54N 59°54' E 028°36'0 0.0
2018-Feb-17 05:21N 59°54' E 028°36'0 0.0
2018-Feb-17 04:54N 59°54' E 028°36'0 0.1
2018-Feb-17 04:30N 59°54' E 028°36'0 0.1
2018-Feb-17 03:57N 59°54' E 028°36'0 0.0
2018-Feb-17 03:27N 59°54' E 028°36'0 0.0
2018-Feb-17 02:57N 59°54' E 028°36'0 0.0
2018-Feb-17 02:30N 59°54' E 028°36'0 0.1
2018-Feb-17 01:57N 59°54' E 028°36'0 0.0
2018-Feb-17 01:30N 59°54' E 028°36'0 0.0
2018-Feb-17 01:00N 59°54' E 028°36'0 0.0
2018-Feb-17 00:30N 59°54' E 028°36'0 0.0
2018-Feb-17 00:00N 59°54' E 028°36'0 0.1
2018-Feb-16 23:30N 59°54' E 028°36'0 0.0
2018-Feb-16 23:00N 59°54' E 028°36'0 0.0
2018-Feb-16 22:30N 59°54' E 028°36'0 0.0
2018-Feb-16 22:00N 59°54' E 028°36'0 0.0
2018-Feb-16 21:30N 59°54' E 028°36'0 0.0
2018-Feb-16 21:00N 59°54' E 028°36'0 0.1
2018-Feb-16 20:30N 59°54' E 028°36'0 0.0
2018-Feb-16 20:00N 59°54' E 028°36'0 0.0
2018-Feb-16 19:30N 59°54' E 028°36'0 0.0
2018-Feb-16 19:00N 59°54' E 028°36'0 0.0
2018-Feb-16 18:18N 59°54' E 028°36'0 0.0
2018-Feb-16 17:51N 59°54' E 028°36'0 0.1
2018-Feb-16 17:30N 59°54' E 028°36'0 0.0
2018-Feb-16 17:00N 59°54' E 028°36'0 0.0
2018-Feb-16 16:24N 59°54' E 028°36'0 0.1
2018-Feb-16 15:57N 59°54' E 028°36'0 0.0
2018-Feb-16 15:24N 59°54' E 028°36'0 0.0
2018-Feb-16 14:58N 59°54' E 028°36'0 0.0
2018-Feb-16 14:28N 59°54' E 028°36'0 0.0
2018-Feb-16 13:59N 59°54' E 028°36'0 0.0
2018-Feb-16 13:27N 59°54' E 028°36'0 0.0
2018-Feb-16 12:57N 59°54' E 028°36'0 0.0
2018-Feb-16 12:27N 59°54' E 028°36'0 0.0
2018-Feb-16 12:00N 59°54' E 028°36'0 0.0
2018-Feb-16 11:30N 59°54' E 028°36'0 0.0
2018-Feb-16 11:00N 59°54' E 028°36'0 0.0
2018-Feb-16 10:30N 59°54' E 028°36'0 0.0
2018-Feb-16 09:57N 59°54' E 028°36'0 0.0
2018-Feb-16 09:30N 59°54' E 028°36'0 0.0
2018-Feb-16 09:00N 59°54' E 028°36'0 0.1
2018-Feb-16 08:27N 59°54' E 028°36'0 0.1
2018-Feb-16 07:57N 59°54' E 028°36'0 0.0
2018-Feb-16 07:18N 59°54' E 028°36'0 0.0
2018-Feb-16 07:00N 59°54' E 028°36'0 0.0
2018-Feb-16 06:21N 59°54' E 028°36'0 0.0
2018-Feb-16 06:00N 59°54' E 028°36'0 0.0
2018-Feb-16 05:30N 59°54' E 028°36'0 0.0
2018-Feb-16 05:00N 59°54' E 028°36'0 0.1
2018-Feb-16 04:30N 59°54' E 028°36'0 0.0
2018-Feb-16 03:58N 59°54' E 028°36'0 0.0
2018-Feb-16 03:30N 59°54' E 028°36'0 0.1
2018-Feb-16 02:54N 59°54' E 028°36'0 0.1
2018-Feb-16 02:24N 59°54' E 028°36'0 0.0
2018-Feb-16 01:54N 59°54' E 028°36'0 0.0
2018-Feb-16 01:21N 59°54' E 028°36'0 0.0
2018-Feb-16 00:51N 59°54' E 028°36'0 0.0
2018-Feb-16 00:27N 59°54' E 028°36'0 0.1
2018-Feb-15 23:57N 59°54' E 028°36'0 0.0
2018-Feb-15 23:27N 59°54' E 028°36'0 0.0
2018-Feb-15 22:57N 59°54' E 028°36'0 0.0
2018-Feb-15 22:24N 59°54' E 028°36'0 0.0
2018-Feb-15 22:00N 59°54' E 028°36'0 0.0
2018-Feb-15 21:30N 59°54' E 028°36'0 0.0
2018-Feb-15 21:00N 59°54' E 028°36'0 0.1
2018-Feb-15 20:30N 59°54' E 028°36'0 0.1
2018-Feb-15 20:00N 59°54' E 028°36'0 0.0
2018-Feb-15 19:30N 59°54' E 028°36'0 0.0
2018-Feb-15 19:00N 59°54' E 028°36'0 0.1
2018-Feb-15 18:30N 59°54' E 028°36'1 1.7
2018-Feb-15 18:00N 59°55' E 028°35'3 6.4
2018-Feb-15 17:30N 59°58' E 028°34'4 7.7
2018-Feb-15 17:00N 60°02' E 028°33'5 9.7
2018-Feb-15 16:30N 60°03' E 028°24'5 9.8
2018-Feb-15 16:00N 60°06' E 028°16'5 9.0
2018-Feb-15 15:30N 60°08' E 028°07'5 9.2
2018-Feb-15 15:00N 60°09' E 027°59'5 9.4
2018-Feb-15 14:30N 60°10' E 027°49'5 9.9
2018-Feb-15 13:59N 60°08' E 027°39'5 9.0
2018-Feb-15 13:28N 60°06' E 027°31'5 9.8
2018-Feb-15 12:59N 60°04' E 027°23'4 9.5
2018-Feb-15 12:30N 60°01' E 027°15'510.2
2018-Feb-15 12:01N 59°59' E 027°07'4 8.5
2018-Feb-15 11:30N 59°58' E 026°58'510.4
2018-Feb-15 10:59N 59°59' E 026°48'4 8.6
2018-Feb-15 10:30N 59°59' E 026°39'5 9.6
2018-Feb-15 10:00N 59°58' E 026°30'5 9.8
2018-Feb-15 09:30N 59°57' E 026°21'17 9.8
2018-Feb-15 07:44N 59°52' E 025°47'5 9.0
2018-Feb-15 07:13N 59°51' E 025°38'410.6
2018-Feb-15 06:51N 59°50' E 025°31'513.0
2018-Feb-15 06:28N 59°49' E 025°21'613.4
2018-Feb-15 06:00N 59°48' E 025°09'612.9
2018-Feb-15 05:31N 59°47' E 024°57'5 9.9
2018-Feb-15 05:00N 59°46' E 024°47'5 9.9
2018-Feb-15 04:31N 59°45' E 024°37'5 9.6
2018-Feb-15 04:00N 59°44' E 024°28'5 9.4
2018-Feb-15 03:30N 59°42' E 024°19'5 9.4
2018-Feb-15 03:00N 59°41' E 024°10'5 9.8
2018-Feb-15 02:30N 59°39' E 024°01'5 9.5
2018-Feb-15 02:00N 59°38' E 023°52'5 9.6
2018-Feb-15 01:30N 59°36' E 023°43'5 9.9
2018-Feb-15 01:01N 59°35' E 023°34'510.1
2018-Feb-15 00:30N 59°33' E 023°24'510.0
2018-Feb-15 00:01N 59°31' E 023°15'5 9.7
2018-Feb-14 23:31N 59°30' E 023°06'283 9.8
2018-Feb-13 18:41N 56°06' E 016°55'3 9.8
2018-Feb-13 18:26N 56°05' E 016°52'4 9.9
2018-Feb-13 18:00N 56°03' E 016°45'7 9.8
2018-Feb-13 17:16N 55°59' E 016°34'3 9.7
2018-Feb-13 17:00N 55°58' E 016°30'5 9.7
2018-Feb-13 16:31N 55°55' E 016°23'5 9.7
2018-Feb-13 16:00N 55°53' E 016°16'5 9.8
2018-Feb-13 15:30N 55°50' E 016°08'5 9.9
2018-Feb-13 15:00N 55°47' E 016°01'5 9.9
2018-Feb-13 14:30N 55°45' E 015°53'5 9.8
2018-Feb-13 14:00N 55°42' E 015°46'5 9.9
2018-Feb-13 13:30N 55°40' E 015°38'510.0
2018-Feb-13 13:00N 55°37' E 015°31'510.3
2018-Feb-13 12:30N 55°35' E 015°22'510.1
2018-Feb-13 12:00N 55°33' E 015°14'5 9.9
2018-Feb-13 11:30N 55°31' E 015°06'510.0
2018-Feb-13 10:59N 55°28' E 014°58'5 9.9
2018-Feb-13 10:30N 55°26' E 014°50'6 9.8
2018-Feb-13 09:53N 55°24' E 014°41'4 9.8
2018-Feb-13 09:30N 55°21' E 014°36'611.9
2018-Feb-13 09:01N 55°16' E 014°30'612.5
2018-Feb-13 08:30N 55°12' E 014°23'510.1
2018-Feb-13 08:00N 55°08' E 014°17'5 9.9
2018-Feb-13 07:31N 55°04' E 014°12'6 9.5
2018-Feb-13 06:50N 55°00' E 014°02'6210.1
2018-Feb-13 00:40N 54°37' E 012°23'210.5
2018-Feb-13 00:30N 54°36' E 012°20'810.2
2018-Feb-12 23:44N 54°29' E 012°14'210.4
2018-Feb-12 23:30N 54°27' E 012°12'15 9.9
2018-Feb-12 22:02N 54°25' E 011°47'210.5
2018-Feb-12 21:48N 54°26' E 011°43'410.8
2018-Feb-12 21:28N 54°28' E 011°37'510.6
2018-Feb-12 21:01N 54°30' E 011°30'510.7
2018-Feb-12 20:30N 54°32' E 011°22'  
Track history (hours):
 
Tides and Currents Weather Stations Pressure Air Temp Water Temp Dewpoint Dewpoint Depression Visibility Wind Speed Wind Dir Waves Ship Positions

Scf Baltica

Last reported at 2018-Feb-22 20:03 UTC. Time now 2018-Feb-24 09:41 UTC.
Position N 58°21' E 011°24'.

Length 250 m; draft 14.2 m.

Type: Ship. MMSI: 636012813.

Date/timePositionNaut miles runAvg speedWind from/ knotsBaromVisibWave heightAir tempDewpointWater temp
2018-Feb-22 20:03N 58°21' E 011°24'0 0.1
2018-Feb-22 20:00N 58°21' E 011°24'0 0.9
2018-Feb-22 19:30N 58°21' E 011°24'1 2.5
2018-Feb-22 19:00N 58°20' E 011°22'4 8.0
2018-Feb-22 18:30N 58°17' E 011°17'510.3
2018-Feb-22 18:00N 58°14' E 011°09'3 5.2
2018-Feb-22 17:29N 58°12' E 011°05'1 2.7
2018-Feb-22 17:00N 58°11' E 011°05'4 8.5
2018-Feb-22 16:30N 58°06' E 011°04'611.1
2018-Feb-22 16:00N 58°01' E 011°01'611.8
2018-Feb-22 15:30N 57°55' E 010°58'611.7
2018-Feb-22 15:00N 57°50' E 010°54'510.2
2018-Feb-22 14:30N 57°45' E 010°52'511.2
2018-Feb-22 14:00N 57°41' E 010°60'612.8
2018-Feb-22 13:30N 57°37' E 011°08'612.8
2018-Feb-22 13:00N 57°32' E 011°17'612.3
2018-Feb-22 12:30N 57°28' E 011°25'612.0
2018-Feb-22 12:00N 57°22' E 011°29'612.2
2018-Feb-22 11:30N 57°17' E 011°33'712.2
2018-Feb-22 10:55N 57°10' E 011°37'612.2
2018-Feb-22 10:26N 57°04' E 011°41'10511.0
2018-Feb-22 00:51N 55°21' E 011°02'6 9.5
2018-Feb-22 00:13N 55°15' E 011°05'210.8
2018-Feb-22 00:00N 55°13' E 011°06'611.9
2018-Feb-21 23:28N 55°08' E 010°60'613.2
2018-Feb-21 23:00N 55°02' E 010°60'612.7
2018-Feb-21 22:30N 54°57' E 010°54'713.5
2018-Feb-21 22:00N 54°50' E 010°50'613.0
2018-Feb-21 21:30N 54°44' E 010°47'510.7
2018-Feb-21 21:00N 54°39' E 010°51'612.4
2018-Feb-21 20:30N 54°36' E 011°00'612.7
2018-Feb-21 20:00N 54°36' E 011°11'713.0
2018-Feb-21 19:30N 54°33' E 011°21'612.7
2018-Feb-21 19:00N 54°30' E 011°31'612.5
2018-Feb-21 18:30N 54°28' E 011°41'812.2
2018-Feb-21 17:50N 54°26' E 011°55'412.5
2018-Feb-21 17:29N 54°27' E 012°02'611.5
2018-Feb-21 17:00N 54°28' E 012°12'7210.2
2018-Feb-21 09:53N 55°03' E 014°01'612.3
2018-Feb-21 09:24N 55°07' E 014°09'613.1
2018-Feb-21 08:56N 55°12' E 014°16'613.1
2018-Feb-21 08:28N 55°16' E 014°22'713.2
2018-Feb-21 07:58N 55°22' E 014°29'613.1
2018-Feb-21 07:30N 55°26' E 014°36'713.1
2018-Feb-21 06:59N 55°30' E 014°47'613.2
2018-Feb-21 06:30N 55°33' E 014°57'713.1
2018-Feb-21 06:00N 55°36' E 015°07'713.1
2018-Feb-21 05:30N 55°38' E 015°18'713.1
2018-Feb-21 05:00N 55°40' E 015°29'713.1
2018-Feb-21 04:30N 55°41' E 015°40'713.2
2018-Feb-21 04:00N 55°43' E 015°52'713.2
2018-Feb-21 03:30N 55°44' E 016°03'713.0
2018-Feb-21 03:00N 55°46' E 016°14'713.0
2018-Feb-21 02:30N 55°48' E 016°26'713.1
2018-Feb-21 02:00N 55°49' E 016°37'613.0
2018-Feb-21 01:30N 55°51' E 016°48'30312.5
2018-Feb-20 01:19N 59°36' E 023°09'513.6
2018-Feb-20 00:55N 59°37' E 023°20'513.3
2018-Feb-20 00:30N 59°39' E 023°30'713.3
2018-Feb-20 00:00N 59°41' E 023°42'713.4
2018-Feb-19 23:30N 59°43' E 023°55'713.4
2018-Feb-19 22:57N 59°45' E 024°09'614.2
2018-Feb-19 22:30N 59°46' E 024°21'712.6
2018-Feb-19 21:59N 59°48' E 024°34'613.3
2018-Feb-19 21:30N 59°49' E 024°46'713.8
2018-Feb-19 21:01N 59°50' E 024°60'813.0
2018-Feb-19 20:23N 59°52' E 025°16'512.9
2018-Feb-19 20:00N 59°53' E 025°25'713.4
2018-Feb-19 19:30N 59°54' E 025°38'1813.1
2018-Feb-19 18:10N 59°59' E 026°12'212.7
2018-Feb-19 18:00N 59°59' E 026°16'612.8
2018-Feb-19 17:30N 60°01' E 026°28'611.9
2018-Feb-19 17:00N 60°01' E 026°40'612.7
2018-Feb-19 16:30N 60°00' E 026°53'612.4
2018-Feb-19 16:00N 60°00' E 027°05'510.5
2018-Feb-19 15:30N 60°02' E 027°15'510.4
2018-Feb-19 15:00N 60°05' E 027°24'610.9
2018-Feb-19 14:30N 60°08' E 027°33'612.6
2018-Feb-19 14:00N 60°11' E 027°43'5 9.5
2018-Feb-19 13:29N 60°11' E 027°53'510.3
2018-Feb-19 13:00N 60°09' E 028°03'5 9.4
2018-Feb-19 12:30N 60°08' E 028°12'510.4
2018-Feb-19 12:00N 60°06' E 028°21'4 8.2
2018-Feb-19 11:30N 60°04' E 028°28'4 8.5
2018-Feb-19 11:00N 60°02' E 028°36'5 9.6
2018-Feb-19 10:30N 59°57' E 028°35'2 4.8
2018-Feb-19 10:00N 59°55' E 028°33'2 3.7
2018-Feb-19 09:30N 59°53' E 028°31'510.1
2018-Feb-19 09:00N 59°49' E 028°26'5 9.2
2018-Feb-19 08:30N 59°44' E 028°25'2 2.9
2018-Feb-19 07:51N 59°43' E 028°26'0 0.0
2018-Feb-19 07:18N 59°43' E 028°26'0 0.0
2018-Feb-19 06:51N 59°43' E 028°26'0 0.0
2018-Feb-19 06:24N 59°43' E 028°26'0 0.0
2018-Feb-19 05:54N 59°43' E 028°26'0 0.0
2018-Feb-19 05:21N 59°43' E 028°26'0 0.0
2018-Feb-19 04:54N 59°43' E 028°26'0 0.0
2018-Feb-19 04:24N 59°43' E 028°26'0 0.0
2018-Feb-19 03:57N 59°43' E 028°26'0 0.0
2018-Feb-19 03:27N 59°43' E 028°26'0 0.0
2018-Feb-19 02:57N 59°43' E 028°26'0 0.0
2018-Feb-19 02:27N 59°43' E 028°26'0 0.0
2018-Feb-19 01:57N 59°43' E 028°26'0 0.0
2018-Feb-19 01:27N 59°43' E 028°26'0 0.0
2018-Feb-19 00:57N 59°43' E 028°26'0 0.0
2018-Feb-19 00:30N 59°43' E 028°26'0 0.0
2018-Feb-18 23:57N 59°43' E 028°26'0 0.0
2018-Feb-18 23:30N 59°43' E 028°26'0 0.0
2018-Feb-18 23:00N 59°43' E 028°26'0 0.0
2018-Feb-18 22:30N 59°43' E 028°26'0 0.0
2018-Feb-18 22:00N 59°43' E 028°26'0 0.0
2018-Feb-18 21:30N 59°43' E 028°26'0 0.0
2018-Feb-18 21:00N 59°43' E 028°26'0 0.0
2018-Feb-18 20:18N 59°43' E 028°26'0 0.0
2018-Feb-18 20:00N 59°43' E 028°26'0 0.0
2018-Feb-18 19:30N 59°43' E 028°26'0 0.0
2018-Feb-18 19:00N 59°43' E 028°26'0 0.0
2018-Feb-18 18:30N 59°43' E 028°26'0 0.0
2018-Feb-18 17:51N 59°43' E 028°26'0 0.0
2018-Feb-18 17:21N 59°43' E 028°26'0 0.0
2018-Feb-18 16:54N 59°43' E 028°26'0 0.0
2018-Feb-18 16:24N 59°43' E 028°26'0 0.0
2018-Feb-18 15:54N 59°43' E 028°26'0 0.0
2018-Feb-18 15:24N 59°43' E 028°26'0 0.0
2018-Feb-18 14:54N 59°43' E 028°26'0 0.0
2018-Feb-18 14:24N 59°43' E 028°26'0 0.0
2018-Feb-18 13:57N 59°43' E 028°26'0 0.0
2018-Feb-18 13:27N 59°43' E 028°26'0 0.0
2018-Feb-18 12:57N 59°43' E 028°26'0 0.0
2018-Feb-18 12:27N 59°43' E 028°26'0 0.0
2018-Feb-18 11:57N 59°43' E 028°26'0 0.0
2018-Feb-18 11:27N 59°43' E 028°26'0 0.0
2018-Feb-18 11:00N 59°43' E 028°26'0 0.0
2018-Feb-18 10:30N 59°43' E 028°26'0 0.0
2018-Feb-18 09:57N 59°43' E 028°26'0 0.0
2018-Feb-18 09:27N 59°43' E 028°26'0 0.0
2018-Feb-18 09:00N 59°43' E 028°26'0 0.0
2018-Feb-18 08:30N 59°43' E 028°26'0 0.0
2018-Feb-18 07:57N 59°43' E 028°26'0 0.0
2018-Feb-18 07:30N 59°43' E 028°26'0 0.0
2018-Feb-18 07:00N 59°43' E 028°26'0 0.0
2018-Feb-18 06:30N 59°43' E 028°26'0 0.0
2018-Feb-18 06:00N 59°43' E 028°26'0 0.0
2018-Feb-18 05:30N 59°43' E 028°26'0 0.0
2018-Feb-18 05:00N 59°43' E 028°26'0 0.0
2018-Feb-18 04:30N 59°43' E 028°26'0 0.0
2018-Feb-18 03:51N 59°43' E 028°26'0 0.0
2018-Feb-18 03:21N 59°43' E 028°26'0 0.0
2018-Feb-18 02:51N 59°43' E 028°26'0 0.0
2018-Feb-18 02:24N 59°43' E 028°26'0 0.0
2018-Feb-18 01:54N 59°43' E 028°26'0 0.0
2018-Feb-18 01:24N 59°43' E 028°26'0 0.0
2018-Feb-18 00:54N 59°43' E 028°26'0 0.0
2018-Feb-18 00:24N 59°43' E 028°26'0 0.0
2018-Feb-17 23:54N 59°43' E 028°26'0 0.0
2018-Feb-17 23:24N 59°43' E 028°26'0 0.0
2018-Feb-17 22:57N 59°43' E 028°26'0 0.0
2018-Feb-17 22:27N 59°43' E 028°26'0 0.0
2018-Feb-17 21:57N 59°43' E 028°26'0 0.2
2018-Feb-17 21:30N 59°42' E 028°25'1 2.3
2018-Feb-17 21:00N 59°41' E 028°24'3 6.6
2018-Feb-17 20:30N 59°45' E 028°24'5 9.7
2018-Feb-17 20:00N 59°50' E 028°25'5 9.3
2018-Feb-17 19:30N 59°53' E 028°31'3 5.5
2018-Feb-17 19:00N 59°54' E 028°36'0 0.1
2018-Feb-17 18:27N 59°54' E 028°36'0 0.0
2018-Feb-17 17:57N 59°54' E 028°36'0 0.0
2018-Feb-17 17:27N 59°54' E 028°36'0 0.0
2018-Feb-17 17:00N 59°54' E 028°36'0 0.0
2018-Feb-17 16:30N 59°54' E 028°36'0 0.0
2018-Feb-17 16:00N 59°54' E 028°36'0 0.0
2018-Feb-17 15:30N 59°54' E 028°36'0 0.1
2018-Feb-17 15:00N 59°54' E 028°36'0 0.1
2018-Feb-17 14:30N 59°54' E 028°36'0 0.0
2018-Feb-17 14:00N 59°54' E 028°36'0 0.0
2018-Feb-17 13:30N 59°54' E 028°36'0 0.1
2018-Feb-17 13:00N 59°54' E 028°36'0 0.0
2018-Feb-17 12:27N 59°54' E 028°36'0 0.0
2018-Feb-17 12:00N 59°54' E 028°36'0 0.0
2018-Feb-17 11:30N 59°54' E 028°36'0 0.0
2018-Feb-17 10:48N 59°54' E 028°36'0 0.0
2018-Feb-17 10:30N 59°54' E 028°36'0 0.0
2018-Feb-17 10:00N 59°54' E 028°36'0 0.0
2018-Feb-17 09:30N 59°54' E 028°36'0 0.0
2018-Feb-17 08:48N 59°54' E 028°36'0 0.0
2018-Feb-17 08:27N 59°54' E 028°36'0 0.0
2018-Feb-17 07:57N 59°54' E 028°36'0 0.0
2018-Feb-17 07:27N 59°54' E 028°36'0 0.0
2018-Feb-17 06:57N 59°54' E 028°36'0 0.1
2018-Feb-17 06:27N 59°54' E 028°36'0 0.0
2018-Feb-17 05:54N 59°54' E 028°36'0 0.0
2018-Feb-17 05:21N 59°54' E 028°36'0 0.0
2018-Feb-17 04:54N 59°54' E 028°36'0 0.1
2018-Feb-17 04:30N 59°54' E 028°36'0 0.1
2018-Feb-17 03:57N 59°54' E 028°36'0 0.0
2018-Feb-17 03:27N 59°54' E 028°36'0 0.0
2018-Feb-17 02:57N 59°54' E 028°36'0 0.0
2018-Feb-17 02:30N 59°54' E 028°36'0 0.1
2018-Feb-17 01:57N 59°54' E 028°36'0 0.0
2018-Feb-17 01:30N 59°54' E 028°36'0 0.0
2018-Feb-17 01:00N 59°54' E 028°36'0 0.0
2018-Feb-17 00:30N 59°54' E 028°36'0 0.0
2018-Feb-17 00:00N 59°54' E 028°36'0 0.1
2018-Feb-16 23:30N 59°54' E 028°36'0 0.0
2018-Feb-16 23:00N 59°54' E 028°36'0 0.0
2018-Feb-16 22:30N 59°54' E 028°36'0 0.0
2018-Feb-16 22:00N 59°54' E 028°36'0 0.0
2018-Feb-16 21:30N 59°54' E 028°36'0 0.0
2018-Feb-16 21:00N 59°54' E 028°36'0 0.1
2018-Feb-16 20:30N 59°54' E 028°36'0 0.0
2018-Feb-16 20:00N 59°54' E 028°36'0 0.0
2018-Feb-16 19:30N 59°54' E 028°36'0 0.0
2018-Feb-16 19:00N 59°54' E 028°36'0 0.0
2018-Feb-16 18:18N 59°54' E 028°36'0 0.0
2018-Feb-16 17:51N 59°54' E 028°36'0 0.1
2018-Feb-16 17:30N 59°54' E 028°36'0 0.0
2018-Feb-16 17:00N 59°54' E 028°36'0 0.0
2018-Feb-16 16:24N 59°54' E 028°36'0 0.1
2018-Feb-16 15:57N 59°54' E 028°36'0 0.0
2018-Feb-16 15:24N 59°54' E 028°36'0 0.0
2018-Feb-16 14:58N 59°54' E 028°36'0 0.0
2018-Feb-16 14:28N 59°54' E 028°36'0 0.0
2018-Feb-16 13:59N 59°54' E 028°36'0 0.0
2018-Feb-16 13:27N 59°54' E 028°36'0 0.0
2018-Feb-16 12:57N 59°54' E 028°36'0 0.0
2018-Feb-16 12:27N 59°54' E 028°36'0 0.0
2018-Feb-16 12:00N 59°54' E 028°36'0 0.0
2018-Feb-16 11:30N 59°54' E 028°36'0 0.0
2018-Feb-16 11:00N 59°54' E 028°36'0 0.0
2018-Feb-16 10:30N 59°54' E 028°36'0 0.0
2018-Feb-16 09:57N 59°54' E 028°36'0 0.0
2018-Feb-16 09:30N 59°54' E 028°36'0 0.0
2018-Feb-16 09:00N 59°54' E 028°36'0 0.1
2018-Feb-16 08:27N 59°54' E 028°36'0 0.1
2018-Feb-16 07:57N 59°54' E 028°36'0 0.0
2018-Feb-16 07:18N 59°54' E 028°36'0 0.0
2018-Feb-16 07:00N 59°54' E 028°36'0 0.0
2018-Feb-16 06:21N 59°54' E 028°36'0 0.0
2018-Feb-16 06:00N 59°54' E 028°36'0 0.0
2018-Feb-16 05:30N 59°54' E 028°36'0 0.0
2018-Feb-16 05:00N 59°54' E 028°36'0 0.1
2018-Feb-16 04:30N 59°54' E 028°36'0 0.0
2018-Feb-16 03:58N 59°54' E 028°36'0 0.0
2018-Feb-16 03:30N 59°54' E 028°36'0 0.1
2018-Feb-16 02:54N 59°54' E 028°36'0 0.1
2018-Feb-16 02:24N 59°54' E 028°36'0 0.0
2018-Feb-16 01:54N 59°54' E 028°36'0 0.0
2018-Feb-16 01:21N 59°54' E 028°36'0 0.0
2018-Feb-16 00:51N 59°54' E 028°36'0 0.0
2018-Feb-16 00:27N 59°54' E 028°36'0 0.1
2018-Feb-15 23:57N 59°54' E 028°36'0 0.0
2018-Feb-15 23:27N 59°54' E 028°36'0 0.0
2018-Feb-15 22:57N 59°54' E 028°36'0 0.0
2018-Feb-15 22:24N 59°54' E 028°36'0 0.0
2018-Feb-15 22:00N 59°54' E 028°36'0 0.0
2018-Feb-15 21:30N 59°54' E 028°36'0 0.0
2018-Feb-15 21:00N 59°54' E 028°36'0 0.1
2018-Feb-15 20:30N 59°54' E 028°36'0 0.1
2018-Feb-15 20:00N 59°54' E 028°36'0 0.0
2018-Feb-15 19:30N 59°54' E 028°36'0 0.0
2018-Feb-15 19:00N 59°54' E 028°36'0 0.1
2018-Feb-15 18:30N 59°54' E 028°36'1 1.7
2018-Feb-15 18:00N 59°55' E 028°35'3 6.4
2018-Feb-15 17:30N 59°58' E 028°34'4 7.7
2018-Feb-15 17:00N 60°02' E 028°33'5 9.7
2018-Feb-15 16:30N 60°03' E 028°24'5 9.8
2018-Feb-15 16:00N 60°06' E 028°16'5 9.0
2018-Feb-15 15:30N 60°08' E 028°07'5 9.2
2018-Feb-15 15:00N 60°09' E 027°59'5 9.4
2018-Feb-15 14:30N 60°10' E 027°49'5 9.9
2018-Feb-15 13:59N 60°08' E 027°39'5 9.0
2018-Feb-15 13:28N 60°06' E 027°31'5 9.8
2018-Feb-15 12:59N 60°04' E 027°23'4 9.5
2018-Feb-15 12:30N 60°01' E 027°15'510.2
2018-Feb-15 12:01N 59°59' E 027°07'4 8.5
2018-Feb-15 11:30N 59°58' E 026°58'510.4
2018-Feb-15 10:59N 59°59' E 026°48'4 8.6
2018-Feb-15 10:30N 59°59' E 026°39'5 9.6
2018-Feb-15 10:00N 59°58' E 026°30'5 9.8
2018-Feb-15 09:30N 59°57' E 026°21'17 9.8
2018-Feb-15 07:44N 59°52' E 025°47'5 9.0
2018-Feb-15 07:13N 59°51' E 025°38'410.6
2018-Feb-15 06:51N 59°50' E 025°31'513.0
2018-Feb-15 06:28N 59°49' E 025°21'613.4
2018-Feb-15 06:00N 59°48' E 025°09'612.9
2018-Feb-15 05:31N 59°47' E 024°57'5 9.9
2018-Feb-15 05:00N 59°46' E 024°47'5 9.9
2018-Feb-15 04:31N 59°45' E 024°37'5 9.6
2018-Feb-15 04:00N 59°44' E 024°28'5 9.4
2018-Feb-15 03:30N 59°42' E 024°19'5 9.4
2018-Feb-15 03:00N 59°41' E 024°10'5 9.8
2018-Feb-15 02:30N 59°39' E 024°01'5 9.5
2018-Feb-15 02:00N 59°38' E 023°52'5 9.6
2018-Feb-15 01:30N 59°36' E 023°43'5 9.9
2018-Feb-15 01:01N 59°35' E 023°34'510.1
2018-Feb-15 00:30N 59°33' E 023°24'510.0
2018-Feb-15 00:01N 59°31' E 023°15'5 9.7
2018-Feb-14 23:31N 59°30' E 023°06'283 9.8
2018-Feb-13 18:41N 56°06' E 016°55'3 9.8
2018-Feb-13 18:26N 56°05' E 016°52'4 9.9
2018-Feb-13 18:00N 56°03' E 016°45'7 9.8
2018-Feb-13 17:16N 55°59' E 016°34'3 9.7
2018-Feb-13 17:00N 55°58' E 016°30'5 9.7
2018-Feb-13 16:31N 55°55' E 016°23'5 9.7
2018-Feb-13 16:00N 55°53' E 016°16'5 9.8
2018-Feb-13 15:30N 55°50' E 016°08'5 9.9
2018-Feb-13 15:00N 55°47' E 016°01'5 9.9
2018-Feb-13 14:30N 55°45' E 015°53'5 9.8
2018-Feb-13 14:00N 55°42' E 015°46'5 9.9
2018-Feb-13 13:30N 55°40' E 015°38'510.0
2018-Feb-13 13:00N 55°37' E 015°31'510.3
2018-Feb-13 12:30N 55°35' E 015°22'510.1
2018-Feb-13 12:00N 55°33' E 015°14'5 9.9
2018-Feb-13 11:30N 55°31' E 015°06'510.0
2018-Feb-13 10:59N 55°28' E 014°58'5 9.9
2018-Feb-13 10:30N 55°26' E 014°50'6 9.8
2018-Feb-13 09:53N 55°24' E 014°41'4 9.8
2018-Feb-13 09:30N 55°21' E 014°36'611.9
2018-Feb-13 09:01N 55°16' E 014°30'612.5
2018-Feb-13 08:30N 55°12' E 014°23'510.1
2018-Feb-13 08:00N 55°08' E 014°17'5 9.9
2018-Feb-13 07:31N 55°04' E 014°12'6 9.5
2018-Feb-13 06:50N 55°00' E 014°02'6210.1
2018-Feb-13 00:40N 54°37' E 012°23'210.5
2018-Feb-13 00:30N 54°36' E 012°20'810.2
2018-Feb-12 23:44N 54°29' E 012°14'210.4
2018-Feb-12 23:30N 54°27' E 012°12'15 9.9
2018-Feb-12 22:02N 54°25' E 011°47'210.5
2018-Feb-12 21:48N 54°26' E 011°43'410.8
2018-Feb-12 21:28N 54°28' E 011°37'510.6
2018-Feb-12 21:01N 54°30' E 011°30'510.7
2018-Feb-12 20:30N 54°32' E 011°22'  

Dump ship's entire track history